Time;durP1;ratioP1;P1;durP2;ratioP2;P2;SDS_P1;SDS_P2;PMS_P1;PMS_P2;Temp;Humidity;BMP_temperature;BMP_pressure;BME280_temperature;BME280_humidity;BME280_pressure;Samples;Min_cycle;Max_cycle;Signal;HPM_P1;HPM_P2
2021/03/04 00:01:37;;;;;;;57.60;27.60;;;;;;;5.09;65.11;99136.66;2180819;81;21601;-84
2021/03/04 00:04:39;;;;;;;57.08;28.50;;;;;;;5.04;64.84;99128.47;2180985;82;21194;-84
2021/03/04 00:07:40;;;;;;;57.85;29.25;;;;;;;5.02;64.91;99126.46;2180704;82;22175;-84
2021/03/04 00:10:42;;;;;;;55.60;28.38;;;;;;;4.99;64.98;99121.07;2181049;82;21702;-83
2021/03/04 00:13:44;;;;;;;78.22;36.23;;;;;;;4.98;65.23;99110.83;2180968;81;21647;-84
2021/03/04 00:16:45;;;;;;;58.92;28.95;;;;;;;4.98;65.31;99105.16;2181150;82;21602;-84
2021/03/04 00:19:47;;;;;;;57.17;28.45;;;;;;;4.96;65.47;99099.29;2180986;82;21619;-83
2021/03/04 00:22:48;;;;;;;59.25;28.25;;;;;;;4.92;65.50;99104.39;2180497;81;21170;-84
2021/03/04 00:25:50;;;;;;;57.85;27.65;;;;;;;4.89;65.71;99098.66;2185747;81;21304;-84
2021/03/04 00:28:52;;;;;;;48.73;23.10;;;;;;;4.83;65.78;99094.81;2187875;81;21146;-84
2021/03/04 00:31:54;;;;;;;45.52;24.92;;;;;;;4.78;66.03;99096.52;2188007;81;21562;-84
2021/03/04 00:34:56;;;;;;;49.83;27.30;;;;;;;4.71;66.15;99093.30;2188027;81;21292;-84
2021/03/04 00:37:57;;;;;;;53.73;28.65;;;;;;;4.63;66.30;99086.65;2188016;81;21175;-83
2021/03/04 00:40:59;;;;;;;62.45;29.40;;;;;;;4.58;66.42;99087.54;2187613;81;21953;-85
2021/03/04 00:44:01;;;;;;;60.58;30.65;;;;;;;4.51;66.64;99088.53;2187902;81;21603;-84
2021/03/04 00:47:03;;;;;;;65.65;30.77;;;;;;;4.45;66.65;99074.78;2187672;81;21804;-83
2021/03/04 00:50:05;;;;;;;71.05;35.05;;;;;;;4.42;66.78;99069.88;2187961;81;21143;-84
2021/03/04 00:53:06;;;;;;;182.68;64.85;;;;;;;4.37;66.99;99063.77;2187631;81;21324;-84
2021/03/04 00:56:08;;;;;;;80.83;36.68;;;;;;;4.34;67.05;99054.97;2187729;81;21166;-83
2021/03/04 00:59:10;;;;;;;78.20;33.48;;;;;;;4.32;67.27;99058.17;2187700;81;21138;-84
2021/03/04 01:02:11;;;;;;;69.53;32.05;;;;;;;4.28;67.27;99046.41;2187689;81;21197;-84
2021/03/04 01:05:13;;;;;;;67.12;31.57;;;;;;;4.24;67.40;99036.80;2187667;81;21308;-84
2021/03/04 01:08:15;;;;;;;62.78;29.23;;;;;;;4.19;67.48;99036.83;2159660;81;21170;-84
2021/03/04 01:11:16;;;;;;;64.00;32.58;;;;;;;4.12;67.55;99034.44;2188337;81;21143;-84
2021/03/04 01:14:18;;;;;;;54.65;28.92;;;;;;;4.04;67.70;99035.56;2187771;81;21154;-83
2021/03/04 01:17:20;;;;;;;59.53;29.60;;;;;;;3.96;68.14;99038.80;2187673;81;21158;-84
2021/03/04 01:20:21;;;;;;;64.60;34.23;;;;;;;3.88;68.14;99039.44;2187959;81;21353;-84
2021/03/04 01:23:23;;;;;;;63.30;32.48;;;;;;;3.80;68.36;99024.20;2187990;81;21210;-84
2021/03/04 01:26:25;;;;;;;63.08;34.48;;;;;;;3.75;68.85;99023.30;2181933;81;21638;-84
2021/03/04 01:29:27;;;;;;;84.30;39.38;;;;;;;3.71;69.42;99015.42;2180859;81;21582;-83
2021/03/04 01:32:29;;;;;;;90.77;39.10;;;;;;;3.70;69.04;99007.31;2180513;81;21301;-84
2021/03/04 01:35:30;;;;;;;76.00;35.13;;;;;;;3.70;69.13;99000.36;2180822;82;21139;-84
2021/03/04 01:38:32;;;;;;;65.50;32.78;;;;;;;3.70;69.33;98995.66;2180699;82;21143;-84
2021/03/04 01:41:34;;;;;;;64.37;32.23;;;;;;;3.70;69.37;98993.06;2180932;81;21182;-84
2021/03/04 01:44:37;;;;;;;69.42;32.90;;;;;;;3.66;69.53;98998.98;2180694;82;21580;-84
2021/03/04 01:47:39;;;;;;;63.13;32.65;;;;;;;3.63;69.64;98991.45;2180736;81;21448;-84
2021/03/04 01:50:41;;;;;;;63.13;32.42;;;;;;;3.59;69.85;98990.09;2180729;82;21449;-83
2021/03/04 01:53:42;;;;;;;59.90;32.65;;;;;;;3.56;69.93;98980.45;2180774;81;21151;-83
2021/03/04 01:56:44;;;;;;;61.35;33.88;;;;;;;3.55;70.17;98973.63;2180697;81;21150;-83
2021/03/04 01:59:46;;;;;;;62.78;32.40;;;;;;;3.56;70.30;98972.20;2180730;81;21131;-83
2021/03/04 02:02:47;;;;;;;68.87;35.92;;;;;;;3.60;70.54;98970.19;2180635;81;21328;-83
2021/03/04 02:05:49;;;;;;;85.57;43.02;;;;;;;3.61;70.61;98969.23;2180732;81;21162;-83
2021/03/04 02:08:50;;;;;;;93.15;44.60;;;;;;;3.60;71.12;98954.17;2180695;82;21296;-83
2021/03/04 02:11:52;;;;;;;73.30;38.73;;;;;;;3.63;71.38;98946.14;2180899;81;21286;-84
2021/03/04 02:14:53;;;;;;;69.67;34.48;;;;;;;3.63;71.09;98938.84;2180898;82;21178;-84
2021/03/04 02:17:55;;;;;;;68.20;36.53;;;;;;;3.65;71.39;98939.05;2180972;81;21191;-84
2021/03/04 02:20:57;;;;;;;64.77;33.35;;;;;;;3.66;71.44;98935.55;2181137;81;21313;-85
2021/03/04 02:23:59;;;;;;;77.42;36.93;;;;;;;3.72;71.85;98940.66;2180282;81;21170;-83
2021/03/04 02:27:00;;;;;;;67.37;35.45;;;;;;;3.76;71.66;98938.64;2187161;81;21693;-84
2021/03/04 02:30:02;;;;;;;65.20;33.85;;;;;;;3.80;71.88;98932.23;2187774;81;21139;-83
2021/03/04 02:33:04;;;;;;;62.38;33.35;;;;;;;3.84;71.79;98924.53;2187920;81;21150;-83
2021/03/04 02:36:06;;;;;;;75.45;36.70;;;;;;;3.86;71.85;98913.11;2187855;81;21177;-82
2021/03/04 02:39:07;;;;;;;63.73;32.05;;;;;;;3.89;71.74;98912.02;2187812;81;21170;-83
2021/03/04 02:42:09;;;;;;;103.70;45.15;;;;;;;3.91;71.91;98895.86;2187780;81;21202;-83
2021/03/04 02:45:10;;;;;;;88.22;41.63;;;;;;;3.92;71.92;98896.20;2187936;81;21158;-83
2021/03/04 02:48:12;;;;;;;71.67;38.42;;;;;;;3.93;72.04;98888.77;2188059;81;21134;-82
2021/03/04 02:51:14;;;;;;;72.20;37.28;;;;;;;3.95;72.26;98885.12;2187767;81;21312;-82
2021/03/04 02:54:15;;;;;;;70.57;37.60;;;;;;;3.97;72.30;98879.80;2188124;81;21186;-83
2021/03/04 02:57:17;;;;;;;72.03;36.20;;;;;;;3.99;72.35;98874.00;2188158;81;21182;-83
2021/03/04 03:00:19;;;;;;;77.08;38.00;;;;;;;4.00;72.30;98868.67;2188043;81;21175;-83
2021/03/04 03:03:20;;;;;;;71.75;39.48;;;;;;;4.02;72.36;98878.90;2187782;81;21155;-84
2021/03/04 03:06:22;;;;;;;71.47;37.15;;;;;;;4.01;72.29;98869.50;2188203;81;21123;-83
2021/03/04 03:09:24;;;;;;;79.55;39.60;;;;;;;4.00;72.31;98861.38;2187797;81;21143;-83
2021/03/04 03:12:25;;;;;;;78.72;41.08;;;;;;;3.97;72.40;98854.70;2187903;81;21626;-83
2021/03/04 03:15:27;;;;;;;68.83;36.53;;;;;;;3.96;72.69;98850.95;2187829;81;21291;-83
2021/03/04 03:18:29;;;;;;;102.65;49.93;;;;;;;3.93;72.62;98855.94;2187694;81;21166;-83
2021/03/04 03:21:31;;;;;;;93.80;45.98;;;;;;;3.91;72.58;98869.48;2188106;81;21221;-82
2021/03/04 03:24:32;;;;;;;89.85;43.70;;;;;;;3.90;72.62;98869.14;2187861;81;21158;-83
2021/03/04 03:27:34;;;;;;;81.25;38.80;;;;;;;3.90;72.63;98863.14;2187529;81;21127;-83
2021/03/04 03:30:36;;;;;;;88.58;43.28;;;;;;;3.85;72.75;98858.37;2187989;81;21209;-83
2021/03/04 03:33:37;;;;;;;78.37;40.12;;;;;;;3.80;72.77;98859.72;2188087;81;21175;-83
2021/03/04 03:36:39;;;;;;;91.70;45.52;;;;;;;3.75;72.92;98860.58;2188012;81;21178;-83
2021/03/04 03:39:40;;;;;;;104.83;50.83;;;;;;;3.68;73.06;98857.23;2187984;81;21134;-84
2021/03/04 03:42:42;;;;;;;170.97;78.22;;;;;;;3.64;72.99;98854.55;2159956;81;21660;-83
2021/03/04 03:45:43;;;;;;;127.55;58.25;;;;;;;3.61;73.12;98850.13;2187998;81;21135;-83
2021/03/04 03:48:45;;;;;;;112.40;48.75;;;;;;;3.60;73.40;98847.20;2187750;81;21179;-83
2021/03/04 03:51:47;;;;;;;93.07;46.02;;;;;;;3.59;73.29;98839.09;2187942;81;21178;-83
2021/03/04 03:54:48;;;;;;;105.47;50.45;;;;;;;3.58;73.24;98833.57;2187746;81;21559;-83
2021/03/04 03:57:50;;;;;;;92.78;44.67;;;;;;;3.57;73.33;98835.81;2187841;81;21195;-83
2021/03/04 04:00:51;;;;;;;83.27;40.92;;;;;;;3.55;73.58;98835.92;2188466;81;21551;-83
2021/03/04 04:03:54;;;;;;;82.30;39.70;;;;;;;3.51;73.42;98847.51;2188127;81;21159;-83
2021/03/04 04:06:55;;;;;;;92.80;43.98;;;;;;;3.48;73.43;98830.95;2188076;81;21603;-83
2021/03/04 04:09:57;;;;;;;85.22;42.93;;;;;;;3.46;73.30;98830.23;2187709;81;21481;-83
2021/03/04 04:12:59;;;;;;;85.75;44.18;;;;;;;3.43;73.34;98834.39;2187996;81;21583;-84
2021/03/04 04:16:01;;;;;;;79.60;39.35;;;;;;;3.45;73.43;98827.79;2187716;81;21621;-84
2021/03/04 04:19:02;;;;;;;80.45;41.98;;;;;;;3.44;73.45;98825.67;2187760;81;21280;-84
2021/03/04 04:22:04;;;;;;;78.17;42.33;;;;;;;3.46;73.33;98823.77;2187994;81;21123;-83
2021/03/04 04:25:06;;;;;;;83.80;44.20;;;;;;;3.46;73.37;98816.48;2186893;81;21281;-83
2021/03/04 04:28:08;;;;;;;93.45;44.75;;;;;;;3.45;73.49;98821.31;2180833;81;21130;-83
2021/03/04 04:31:09;;;;;;;80.75;41.28;;;;;;;3.43;73.34;98816.28;2180750;81;21145;-83
2021/03/04 04:34:11;;;;;;;85.15;41.02;;;;;;;3.41;73.39;98820.77;2181231;81;21737;-83
2021/03/04 04:37:12;;;;;;;84.10;42.45;;;;;;;3.37;73.23;98816.79;2180699;81;21163;-83
2021/03/04 04:40:14;;;;;;;81.40;43.30;;;;;;;3.35;73.31;98812.23;2180881;81;21134;-83
2021/03/04 04:43:16;;;;;;;84.20;42.03;;;;;;;3.34;73.43;98809.30;2180768;81;21597;-83
2021/03/04 04:46:18;;;;;;;83.50;40.58;;;;;;;3.33;73.37;98803.30;2202307;80;21630;-84
2021/03/04 04:49:19;;;;;;;81.40;38.70;;;;;;;3.33;73.29;98799.42;2180907;82;21321;-84
2021/03/04 04:52:21;;;;;;;73.60;39.33;;;;;;;3.36;73.29;98793.16;2180500;81;21740;-83
2021/03/04 04:55:22;;;;;;;73.42;37.85;;;;;;;3.38;73.27;98794.69;2180445;82;21135;-83
2021/03/04 04:58:24;;;;;;;75.35;39.45;;;;;;;3.37;73.21;98777.97;2180632;81;21626;-84
2021/03/04 05:01:26;;;;;;;81.12;40.63;;;;;;;3.35;73.15;98765.16;2180916;81;21570;-83
2021/03/04 05:04:27;;;;;;;84.15;38.58;;;;;;;3.35;73.03;98769.52;2180734;81;21652;-84
2021/03/04 05:07:29;;;;;;;79.95;37.88;;;;;;;3.32;73.07;98772.38;2180552;81;21601;-83
2021/03/04 05:10:31;;;;;;;77.00;38.98;;;;;;;3.30;73.05;98755.70;2180845;82;21301;-83
2021/03/04 05:13:33;;;;;;;80.35;39.23;;;;;;;3.30;73.07;98745.82;2180575;81;21630;-83
2021/03/04 05:16:35;;;;;;;73.05;38.60;;;;;;;3.31;73.02;98740.51;2180710;81;21150;-83
2021/03/04 05:19:37;;;;;;;84.13;44.23;;;;;;;3.35;73.02;98744.45;2181029;81;21194;-84
2021/03/04 05:22:38;;;;;;;75.67;37.75;;;;;;;3.39;72.92;98738.55;2180891;82;21285;-84
2021/03/04 05:25:41;;;;;;;65.80;34.67;;;;;;;3.41;72.90;98740.53;2181871;81;21162;-83
2021/03/04 05:28:42;;;;;;;65.22;34.13;;;;;;;3.42;72.93;98734.39;2188040;81;21174;-83
2021/03/04 05:31:44;;;;;;;69.20;35.78;;;;;;;3.43;72.80;98738.62;2187787;81;21142;-84
2021/03/04 05:34:46;;;;;;;68.72;33.88;;;;;;;3.45;72.78;98730.23;2187906;81;21586;-84
2021/03/04 05:37:48;;;;;;;66.15;34.15;;;;;;;3.49;72.73;98725.63;2187629;81;21313;-83
2021/03/04 05:40:49;;;;;;;61.68;34.03;;;;;;;3.54;72.68;98722.14;2187671;81;21626;-83
2021/03/04 05:43:51;;;;;;;70.52;34.20;;;;;;;3.61;72.70;98719.36;2188042;81;21184;-87
2021/03/04 05:46:53;;;;;;;63.63;31.80;;;;;;;3.69;72.54;98723.39;2187933;81;21214;-83
2021/03/04 05:49:54;;;;;;;55.80;28.92;;;;;;;3.77;72.51;98725.31;2187595;81;21277;-86
2021/03/04 05:52:56;;;;;;;65.35;30.95;;;;;;;3.87;72.44;98726.94;2187382;81;21146;-80
2021/03/04 05:55:57;;;;;;;58.35;29.82;;;;;;;3.97;72.37;98731.64;2187718;81;21618;-83
2021/03/04 05:59:00;;;;;;;98.00;43.85;;;;;;;4.06;72.21;98722.22;2188080;81;21320;-85
2021/03/04 06:02:01;;;;;;;78.15;38.53;;;;;;;4.17;72.10;98720.77;2187500;81;21357;-82
2021/03/04 06:05:03;;;;;;;81.60;40.05;;;;;;;4.29;72.00;98714.95;2187904;81;21194;-86
2021/03/04 06:08:04;;;;;;;85.60;45.28;;;;;;;4.42;71.86;98718.07;2187928;81;21167;-82
2021/03/04 06:11:06;;;;;;;95.12;45.35;;;;;;;4.54;71.78;98709.64;2187663;81;21277;-82
2021/03/04 06:14:08;;;;;;;71.47;34.67;;;;;;;4.66;71.66;98712.87;2187654;81;21304;-82
2021/03/04 06:17:10;;;;;;;68.15;33.58;;;;;;;4.77;71.50;98703.16;2187699;81;21174;-82
2021/03/04 06:20:11;;;;;;;65.67;31.10;;;;;;;4.87;71.38;98710.08;2188447;81;21174;-86
2021/03/04 06:23:13;;;;;;;66.22;32.15;;;;;;;4.93;71.24;98710.30;2188239;81;21198;-80
2021/03/04 06:26:14;;;;;;;111.92;55.60;;;;;;;4.98;71.20;98712.48;2185646;81;21290;-81
2021/03/04 06:29:16;;;;;;;68.22;34.05;;;;;;;5.02;71.03;98719.00;2181087;82;21146;-82
2021/03/04 06:32:22;;;;;;;65.35;31.73;;;;;;;5.07;70.96;98733.20;2180868;82;21265;-82
2021/03/04 06:35:24;;;;;;;53.40;28.95;;;;;;;5.17;71.04;98737.03;2181160;81;21337;-82
2021/03/04 06:38:27;;;;;;;47.38;26.42;;;;;;;5.28;70.70;98729.53;2181001;81;21309;-84
2021/03/04 06:41:29;;;;;;;53.75;29.75;;;;;;;5.41;70.63;98737.33;2181119;81;21194;-82
2021/03/04 06:44:31;;;;;;;54.18;28.75;;;;;;;5.55;70.14;98728.20;2181269;82;21151;-87
2021/03/04 06:47:32;;;;;;;52.80;30.48;;;;;;;5.68;70.33;98740.36;2202046;80;21166;-88
2021/03/04 06:50:34;;;;;;;56.80;30.35;;;;;;;5.78;70.02;98736.39;2180715;81;21142;-84
2021/03/04 06:53:36;;;;;;;75.28;32.20;;;;;;;5.87;69.86;98741.18;2184336;81;21143;-83
2021/03/04 06:56:37;;;;;;;63.78;28.75;;;;;;;5.91;69.54;98745.13;2195505;80;21166;-84
2021/03/04 06:59:42;;;;;;;60.05;31.65;;;;;;;5.96;69.40;98755.91;2219466;80;21567;-84
2021/03/04 07:02:43;;;;;;;53.35;29.63;;;;;;;6.03;69.39;98754.81;2219525;80;21315;-84
2021/03/04 07:05:45;;;;;;;55.98;30.70;;;;;;;6.07;69.15;98753.08;2219626;80;21317;-83
2021/03/04 07:08:46;;;;;;;59.70;30.92;;;;;;;6.10;69.27;98759.27;2219969;80;21340;-84
2021/03/04 07:11:50;;;;;;;53.78;29.90;;;;;;;6.13;69.27;98759.47;2219683;80;21274;-84
2021/03/04 07:14:52;;;;;;;66.72;36.53;;;;;;;6.16;69.16;98754.78;2219146;80;21298;-84
2021/03/04 07:17:53;;;;;;;56.48;31.17;;;;;;;6.22;69.21;98755.48;2216102;80;21710;-85
2021/03/04 07:20:55;;;;;;;46.73;26.15;;;;;;;6.32;69.16;98754.09;2202717;80;22358;-88
2021/03/04 07:23:57;;;;;;;48.85;28.52;;;;;;;6.47;68.88;98747.36;2189095;81;21114;-86
2021/03/04 07:26:58;;;;;;;54.75;31.60;;;;;;;6.54;68.88;98748.88;2191584;80;21167;-86
2021/03/04 07:30:00;;;;;;;68.02;32.75;;;;;;;6.61;68.88;98747.30;2193993;80;21308;-86
2021/03/04 07:33:01;;;;;;;58.35;31.77;;;;;;;6.67;68.61;98750.56;2193201;80;21281;-85
2021/03/04 07:36:03;;;;;;;44.55;28.40;;;;;;;6.77;68.54;98752.60;2184460;81;21306;-84
2021/03/04 07:39:05;;;;;;;48.48;29.45;;;;;;;6.83;68.39;98740.74;2180553;81;21158;-83
2021/03/04 07:42:06;;;;;;;54.75;31.12;;;;;;;6.88;68.18;98739.80;2181133;81;21312;-82
2021/03/04 07:45:08;;;;;;;54.53;31.62;;;;;;;7.00;68.29;98740.34;2181151;81;21544;-81
2021/03/04 07:48:10;;;;;;;60.75;32.30;;;;;;;7.07;68.14;98736.14;2180915;81;21135;-79
2021/03/04 07:51:12;;;;;;;60.98;33.85;;;;;;;7.14;68.13;98739.77;2180704;82;21166;-78
2021/03/04 07:54:14;;;;;;;57.85;34.30;;;;;;;7.20;67.59;98745.63;2180792;81;21622;-79
2021/03/04 07:57:15;;;;;;;53.23;31.75;;;;;;;7.23;67.37;98742.73;2151160;82;21332;-77
2021/03/04 08:00:17;;;;;;;54.95;32.78;;;;;;;7.27;67.84;98741.42;2180706;82;21147;-78
2021/03/04 08:03:19;;;;;;;58.50;34.00;;;;;;;7.33;67.67;98743.41;2151425;82;21269;-79
2021/03/04 08:06:20;;;;;;;65.85;36.28;;;;;;;7.40;67.47;98736.57;2180796;81;21142;-78
2021/03/04 08:09:22;;;;;;;61.10;35.13;;;;;;;7.42;67.45;98731.23;2180983;81;21162;-79
2021/03/04 08:12:24;;;;;;;68.37;37.25;;;;;;;7.39;67.33;98723.70;2181155;82;21148;-80
2021/03/04 08:15:26;;;;;;;55.98;32.15;;;;;;;7.43;67.53;98735.46;2181134;82;21200;-78
2021/03/04 08:18:28;;;;;;;59.90;34.58;;;;;;;7.41;67.58;98733.02;2180826;81;21179;-79
2021/03/04 08:21:29;;;;;;;75.52;40.67;;;;;;;7.45;67.75;98728.30;2180745;81;21182;-78
2021/03/04 08:24:31;;;;;;;73.20;37.20;;;;;;;7.45;67.75;98720.48;2180434;81;21654;-79
2021/03/04 08:27:33;;;;;;;87.65;42.50;;;;;;;7.52;67.74;98732.39;2184622;81;21642;-78
2021/03/04 08:30:36;;;;;;;70.03;39.92;;;;;;;7.54;67.50;98727.34;2159767;81;21127;-78
2021/03/04 08:33:38;;;;;;;74.05;41.00;;;;;;;7.55;67.74;98730.27;2187741;81;21171;-78
2021/03/04 08:36:39;;;;;;;71.17;38.10;;;;;;;7.49;67.72;98717.87;2187641;81;21162;-79
2021/03/04 08:39:41;;;;;;;69.92;37.20;;;;;;;7.44;67.88;98735.78;2187738;81;21301;-79
2021/03/04 08:42:43;;;;;;;76.82;42.30;;;;;;;7.43;68.05;98733.34;2187978;81;21186;-79
2021/03/04 08:45:44;;;;;;;87.22;45.03;;;;;;;7.39;67.91;98721.92;2188031;81;21150;-77
2021/03/04 08:48:46;;;;;;;83.00;43.65;;;;;;;7.35;68.05;98723.22;2187701;81;21155;-78
2021/03/04 08:51:48;;;;;;;76.57;43.30;;;;;;;7.30;68.03;98717.66;2188152;81;21142;-78
2021/03/04 08:54:50;;;;;;;89.47;46.75;;;;;;;7.35;68.16;98721.11;2187854;81;21316;-79
2021/03/04 08:57:52;;;;;;;75.95;45.00;;;;;;;7.36;68.10;98711.02;2196674;80;21273;-78
2021/03/04 09:00:54;;;;;;;74.72;38.58;;;;;;;7.34;68.03;98709.06;2196574;79;21285;-78
2021/03/04 09:03:56;;;;;;;79.75;44.25;;;;;;;7.44;68.13;98707.62;2187660;81;21288;-78
2021/03/04 09:06:58;;;;;;;82.40;45.92;;;;;;;7.49;67.93;98708.75;2187686;81;21166;-78
2021/03/04 09:09:59;;;;;;;80.40;44.25;;;;;;;7.50;67.95;98706.95;2187921;81;21341;-78
2021/03/04 09:13:01;;;;;;;75.97;39.35;;;;;;;7.50;67.94;98709.56;2188495;81;21320;-83
2021/03/04 09:16:05;;;;;;;84.90;47.90;;;;;;;7.51;67.92;98708.61;2188810;81;21139;-85
2021/03/04 09:19:07;;;;;;;79.92;41.70;;;;;;;7.58;68.00;98703.88;2187915;81;21308;-79
2021/03/04 09:22:08;;;;;;;77.30;43.87;;;;;;;7.73;67.91;98705.87;2188298;81;21296;-82
2021/03/04 09:25:12;;;;;;;78.65;44.42;;;;;;;7.88;67.49;98690.73;2187698;81;21590;-79
2021/03/04 09:28:14;;;;;;;84.37;47.17;;;;;;;8.04;67.37;98699.52;2187519;81;21154;-78
2021/03/04 09:31:16;;;;;;;80.83;47.08;;;;;;;8.20;67.21;98695.11;2187735;81;21174;-82
2021/03/04 09:34:17;;;;;;;78.10;45.73;;;;;;;8.40;67.02;98691.68;2188259;81;21324;-80
2021/03/04 09:37:19;;;;;;;80.47;47.05;;;;;;;8.59;66.72;98688.38;2188479;81;21312;-82
2021/03/04 09:40:21;;;;;;;80.40;49.67;;;;;;;8.78;66.67;98685.41;2192570;80;21171;-81
2021/03/04 09:43:23;;;;;;;81.50;47.43;;;;;;;8.94;65.86;98686.63;2198022;79;21140;-83
2021/03/04 09:46:28;;;;;;;89.55;42.08;;;;;;;9.08;65.78;98674.17;2196624;80;21130;-84
2021/03/04 09:49:30;;;;;;;79.45;47.75;;;;;;;9.24;65.44;98671.17;2187692;81;21301;-81
2021/03/04 09:52:31;;;;;;;70.70;44.70;;;;;;;9.33;65.42;98673.56;2195529;81;21296;-79
2021/03/04 09:55:33;;;;;;;75.28;46.53;;;;;;;9.49;64.64;98673.13;2200396;80;21175;-81
2021/03/04 09:58:34;;;;;;;87.80;47.60;;;;;;;9.57;64.10;98679.11;2199970;80;21135;-81
2021/03/04 10:01:38;;;;;;;81.02;50.08;;;;;;;9.67;64.44;98678.38;2200381;80;21289;-82
2021/03/04 10:04:41;;;;;;;82.55;48.63;;;;;;;9.76;64.15;98679.63;2199895;80;21191;-82
2021/03/04 10:07:45;;;;;;;77.85;47.78;;;;;;;9.81;64.00;98677.33;2200094;80;21250;-83
2021/03/04 10:10:47;;;;;;;80.42;47.38;;;;;;;9.74;63.22;98689.47;2200121;80;21297;-87
2021/03/04 10:13:49;;;;;;;82.10;48.75;;;;;;;9.64;63.02;98681.36;2200558;80;21297;-83
2021/03/04 10:16:51;;;;;;;88.17;51.37;;;;;;;9.67;63.31;98683.61;2200495;80;21322;-82
2021/03/04 10:19:53;;;;;;;83.50;51.10;;;;;;;9.77;62.96;98682.56;2201180;80;21131;-84
2021/03/04 10:22:54;;;;;;;84.97;49.95;;;;;;;9.91;63.14;98681.81;2200471;81;21265;-84
2021/03/04 10:25:56;;;;;;;80.67;48.95;;;;;;;9.97;62.64;98682.44;2200558;80;21308;-84
2021/03/04 10:28:58;;;;;;;83.42;50.40;;;;;;;9.93;62.03;98681.95;2220809;80;21167;-85
2021/03/04 10:32:00;;;;;;;75.75;48.83;;;;;;;9.93;62.46;98687.67;2225106;80;21738;-86
2021/03/04 10:35:01;;;;;;;85.45;51.33;;;;;;;9.90;61.54;98679.70;2225390;80;21151;-82
2021/03/04 10:38:06;;;;;;;76.33;48.85;;;;;;;9.86;61.76;98684.95;2224696;80;21329;-84
2021/03/04 10:41:10;;;;;;;77.85;45.15;;;;;;;9.81;59.72;98677.33;2224849;80;21155;-85
2021/03/04 10:44:11;;;;;;;77.53;49.23;;;;;;;9.87;61.02;98677.41;2225631;80;21339;-85
2021/03/04 10:47:13;;;;;;;79.25;48.35;;;;;;;9.94;61.03;98675.73;2225688;80;21302;-84
2021/03/04 10:50:15;;;;;;;71.65;44.90;;;;;;;9.94;60.68;98671.80;2225629;80;21131;-88
2021/03/04 10:53:17;;;;;;;78.52;46.33;;;;;;;10.02;60.49;98664.88;2226127;80;21266;-87
2021/03/04 10:56:19;;;;;;;72.32;46.13;;;;;;;10.05;60.15;98661.91;2225908;80;22215;-85
2021/03/04 10:59:20;;;;;;;74.92;46.30;;;;;;;10.04;59.98;98655.86;2226071;80;21262;-86
2021/03/04 11:02:22;;;;;;;79.42;48.68;;;;;;;10.09;60.50;98662.70;2225830;80;21292;-88
2021/03/04 11:05:23;;;;;;;63.45;42.65;;;;;;;10.20;60.03;98659.64;2225441;80;21305;-87
2021/03/04 11:08:25;;;;;;;72.20;46.80;;;;;;;10.34;60.11;98652.04;2225419;80;21718;-88
2021/03/04 11:11:27;;;;;;;73.17;47.88;;;;;;;10.38;58.70;98644.13;2225597;80;21282;-87
2021/03/04 11:14:31;;;;;;;68.72;44.20;;;;;;;10.45;59.29;98639.31;2200643;80;21622;-84
2021/03/04 11:17:33;;;;;;;62.83;42.73;;;;;;;10.52;58.28;98625.02;2225019;80;21300;-84
2021/03/04 11:20:34;;;;;;;63.38;41.63;;;;;;;10.62;57.76;98619.00;2224843;80;21292;-84
2021/03/04 11:23:37;;;;;;;57.83;37.90;;;;;;;10.65;57.86;98617.81;2225138;80;21175;-84
2021/03/04 11:26:39;;;;;;;67.62;41.70;;;;;;;10.65;56.42;98613.89;2200848;80;21308;-85
2021/03/04 11:29:40;;;;;;;65.78;40.83;;;;;;;10.61;57.33;98606.91;2224929;80;21281;-84
2021/03/04 11:32:42;;;;;;;65.85;42.48;;;;;;;10.65;58.19;98604.22;2224977;80;21277;-84
2021/03/04 11:35:44;;;;;;;61.42;37.28;;;;;;;10.62;56.09;98615.56;2224726;80;21163;-84
2021/03/04 11:38:45;;;;;;;59.18;39.20;;;;;;;10.63;56.62;98594.44;2225312;80;21173;-85
2021/03/04 11:41:47;;;;;;;59.63;40.52;;;;;;;10.68;56.26;98581.59;2224684;80;21559;-84
2021/03/04 11:44:49;;;;;;;50.35;33.75;;;;;;;10.73;57.29;98583.17;2224744;80;21343;-84
2021/03/04 11:47:50;;;;;;;57.55;37.53;;;;;;;10.77;55.43;98583.11;2224978;80;21139;-84
2021/03/04 11:50:52;;;;;;;60.23;39.13;;;;;;;10.72;55.90;98582.05;2224981;80;21694;-85
2021/03/04 11:53:53;;;;;;;54.10;36.35;;;;;;;10.73;56.75;98575.81;2224947;80;21174;-84
2021/03/04 11:56:55;;;;;;;53.25;35.48;;;;;;;10.74;54.63;98573.52;2225103;80;21289;-85
2021/03/04 11:59:57;;;;;;;55.15;32.73;;;;;;;10.71;55.43;98564.72;2225200;80;21163;-85
2021/03/04 12:02:59;;;;;;;54.98;36.28;;;;;;;10.62;54.66;98565.33;2225784;80;21309;-90
2021/03/04 12:06:01;;;;;;;58.90;36.70;;;;;;;10.53;55.21;98563.80;2225353;80;21293;-84
2021/03/04 12:09:02;;;;;;;50.17;32.73;;;;;;;10.44;55.45;98551.31;2225503;80;21281;-85
2021/03/04 12:12:04;;;;;;;57.25;36.75;;;;;;;10.33;55.44;98555.67;2225000;80;21135;-84
2021/03/04 12:15:07;;;;;;;56.23;35.60;;;;;;;10.25;55.02;98563.14;2226171;80;21729;-85
2021/03/04 12:18:10;;;;;;;59.63;35.95;;;;;;;10.24;55.55;98564.61;2225542;80;21579;-84
2021/03/04 12:21:19;;;;;;;63.02;39.80;;;;;;;10.31;55.72;98546.39;2225346;80;21658;-85
2021/03/04 12:24:17;;;;;;;56.30;36.00;;;;;;;10.42;56.13;98540.68;2223465;80;21314;-85
2021/03/04 12:27:23;;;;;;;51.83;33.60;;;;;;;10.44;55.49;98537.41;2223088;80;21183;-84
2021/03/04 12:30:25;;;;;;;58.92;37.17;;;;;;;10.40;54.41;98538.25;2197717;81;21143;-85
2021/03/04 12:33:33;;;;;;;55.43;34.78;;;;;;;10.33;55.35;98537.35;2197498;81;21147;-89
2021/03/04 12:40:29;;;;;;;;;;;;;;;;;;;;;
2021/03/04 12:43:30;;;;;;;41.70;27.93;;;;;;;10.33;55.07;98516.41;2218084;79;23132;-90
2021/03/04 12:46:46;;;;;;;55.73;32.65;;;;;;;10.29;54.40;98519.09;2104002;84;21233;-89
2021/03/04 12:53:51;;;;;;;52.25;34.38;;;;;;;10.41;54.30;98508.47;2189707;80;24289;-88
2021/03/04 12:57:00;;;;;;;;;;;;;;;;;;;;;
2021/03/04 12:59:57;;;;;;;52.73;35.33;;;;;;;10.33;53.96;98509.06;2072627;86;21343;-85
2021/03/04 13:11:15;;;;;;;51.42;30.92;;;;;;;10.16;54.14;98495.36;2261145;78;21143;-85
2021/03/04 13:14:37;;;;;;;55.05;30.72;;;;;;;10.15;54.01;98501.09;2220707;79;21175;-87
2021/03/04 13:17:41;;;;;;;48.75;28.47;;;;;;;10.19;53.18;98476.67;2218807;79;21159;-86
2021/03/04 13:20:43;;;;;;;42.40;27.85;;;;;;;10.21;52.75;98479.91;2264813;78;21282;-87
2021/03/04 13:23:47;;;;;;;47.53;30.05;;;;;;;10.20;53.36;98495.30;2254160;78;21171;-85
2021/03/04 13:26:48;;;;;;;38.88;24.77;;;;;;;10.18;53.33;98482.91;2282846;78;21247;-85
2021/03/04 13:29:50;;;;;;;48.05;25.45;;;;;;;10.24;52.93;98475.64;2246103;78;21571;-88
2021/03/04 13:36:38;;;;;;;56.73;34.98;;;;;;;10.47;53.32;98476.83;2245441;77;21285;-86
2021/03/04 13:39:42;;;;;;;61.18;39.10;;;;;;;10.57;53.98;98481.27;2269901;78;21338;-85
2021/03/04 13:42:43;;;;;;;58.45;36.58;;;;;;;10.61;54.37;98481.23;2276900;77;21306;-85
2021/03/04 13:45:47;;;;;;;48.20;30.88;;;;;;;10.68;54.21;98478.66;2280146;77;21303;-86
2021/03/04 13:48:49;;;;;;;49.13;31.52;;;;;;;10.69;53.06;98481.59;2264616;77;21313;-86
2021/03/04 13:51:54;;;;;;;59.95;36.20;;;;;;;10.66;53.37;98476.73;2274424;77;21301;-86
2021/03/04 13:54:54;;;;;;;54.83;33.95;;;;;;;10.64;53.89;98471.69;2263345;77;21274;-88
2021/03/04 13:57:56;;;;;;;51.37;32.78;;;;;;;10.65;53.19;98470.69;2281740;78;21163;-88
2021/03/04 14:01:01;;;;;;;58.55;36.10;;;;;;;10.65;53.10;98480.34;2266887;78;21329;-87
2021/03/04 14:04:02;;;;;;;55.60;34.83;;;;;;;10.67;53.73;98470.50;2252228;78;21151;-87
2021/03/04 14:07:04;;;;;;;53.58;32.98;;;;;;;10.68;53.34;98469.00;2253691;78;21116;-86
2021/03/04 14:10:05;;;;;;;47.05;30.43;;;;;;;10.74;53.63;98473.50;2279373;77;21359;-86
2021/03/04 14:13:09;;;;;;;54.25;33.28;;;;;;;10.76;52.83;98468.06;2270402;77;21158;-86
2021/03/04 14:16:11;;;;;;;52.83;35.15;;;;;;;10.79;53.04;98463.79;2259069;77;21895;-85
2021/03/04 14:19:13;;;;;;;53.33;36.17;;;;;;;10.82;52.93;98471.27;2264873;77;21317;-86
2021/03/04 14:22:14;;;;;;;58.28;36.25;;;;;;;10.69;53.12;98466.69;2269494;77;21258;-86
2021/03/04 14:25:16;;;;;;;55.80;36.38;;;;;;;10.57;53.36;98458.20;2276041;77;21286;-88
2021/03/04 14:28:18;;;;;;;62.83;37.65;;;;;;;10.47;53.57;98463.24;2280554;77;21168;-87